Time;durP1;ratioP1;P1;durP2;ratioP2;P2;SDS_P1;SDS_P2;PMS_P1;PMS_P2;Temp;Humidity;BMP_temperature;BMP_pressure;BME280_temperature;BME280_humidity;BME280_pressure;Samples;Min_cycle;Max_cycle;Signal;HPM_P1;HPM_P2
2022/11/18 00:04:02;;;;;;;12.48;9.77;;;;;;;11.16;93.01;98299.28;10530826;28;20153;-71
2022/11/18 00:09:04;;;;;;;11.63;7.60;;;;;;;11.11;92.40;98304.31;10527738;27;20062;-68
2022/11/18 00:14:23;;;;;;;10.00;7.47;;;;;;;11.06;92.06;98307.47;10530357;28;20498;-71
2022/11/18 00:19:28;;;;;;;7.90;6.70;;;;;;;11.05;91.35;98302.34;10519417;28;20040;-70
2022/11/18 00:24:29;;;;;;;10.32;7.10;;;;;;;10.99;91.41;98292.38;10525137;28;20134;-69
2022/11/18 00:29:31;;;;;;;9.38;7.55;;;;;;;10.96;90.90;98294.41;10514179;28;20044;-69
2022/11/18 00:34:32;;;;;;;8.63;6.47;;;;;;;10.92;90.88;98314.38;10526326;28;20043;-69
2022/11/18 00:39:33;;;;;;;12.43;7.93;;;;;;;10.93;91.83;98305.41;10514417;28;20056;-69
2022/11/18 00:44:35;;;;;;;8.90;7.60;;;;;;;10.81;92.64;98304.13;10524179;28;20059;-71
2022/11/18 00:49:37;;;;;;;10.00;7.38;;;;;;;10.93;92.11;98308.06;10526004;28;20035;-70
2022/11/18 00:54:38;;;;;;;11.05;7.47;;;;;;;10.78;92.21;98296.50;10501277;28;20047;-69
2022/11/18 00:59:39;;;;;;;9.93;8.10;;;;;;;10.85;92.74;98296.63;10524334;28;20039;-69
2022/11/18 01:04:41;;;;;;;9.15;8.02;;;;;;;10.99;92.78;98303.03;10526145;28;20745;-69
2022/11/18 01:09:42;;;;;;;10.63;8.98;;;;;;;10.98;92.65;98312.03;10508770;28;20047;-73
2022/11/18 01:14:43;;;;;;;10.85;8.48;;;;;;;10.89;93.36;98314.72;10519405;28;20055;-69
2022/11/18 01:19:45;;;;;;;11.73;8.82;;;;;;;10.89;93.25;98317.38;10517987;28;20657;-69
2022/11/18 01:24:46;;;;;;;9.73;8.43;;;;;;;10.93;93.38;98326.69;10523029;28;20053;-69
2022/11/18 01:29:47;;;;;;;13.52;9.13;;;;;;;10.84;93.68;98327.75;10519923;28;20048;-69
2022/11/18 01:34:49;;;;;;;11.75;9.57;;;;;;;10.84;93.79;98321.56;10522380;28;20076;-69
2022/11/18 01:39:50;;;;;;;10.45;9.05;;;;;;;10.91;94.28;98335.84;10522565;28;20046;-71
2022/11/18 01:44:59;;;;;;;11.75;10.57;;;;;;;10.90;93.60;98343.00;10505875;28;20680;-69
2022/11/18 01:50:02;;;;;;;13.20;10.73;;;;;;;10.84;94.46;98345.53;10522865;28;20604;-70
2022/11/18 01:55:09;;;;;;;11.68;10.57;;;;;;;10.83;94.21;98344.69;10528226;28;20121;-70
2022/11/18 02:00:12;;;;;;;12.90;11.57;;;;;;;10.90;94.26;98343.00;10533118;28;20966;-70
2022/11/18 02:05:14;;;;;;;12.30;11.05;;;;;;;10.95;94.26;98345.16;10529686;28;20054;-69
2022/11/18 02:10:21;;;;;;;13.85;12.07;;;;;;;11.00;93.49;98341.97;10520894;28;20055;-71
2022/11/18 02:15:34;;;;;;;13.63;12.23;;;;;;;11.01;93.82;98338.31;10531420;28;20044;-71
2022/11/18 02:20:41;;;;;;;13.63;11.35;;;;;;;11.02;93.70;98353.28;10527631;27;20573;-69
2022/11/18 02:26:14;;;;;;;14.77;13.25;;;;;;;10.91;93.46;98347.34;10533372;28;20063;-71
2022/11/18 02:31:30;;;;;;;12.88;11.60;;;;;;;10.91;93.69;98344.69;10578222;27;20042;-71
2022/11/18 02:36:46;;;;;;;13.30;11.90;;;;;;;10.97;93.87;98364.44;10553184;28;20574;-71
2022/11/18 02:41:52;;;;;;;16.67;12.55;;;;;;;11.02;93.47;98355.94;10549854;28;20044;-71
2022/11/18 02:47:00;;;;;;;14.43;12.43;;;;;;;11.04;92.97;98348.63;10526949;27;20040;-70
2022/11/18 02:52:04;;;;;;;13.07;11.65;;;;;;;11.04;92.72;98354.78;10514503;28;20063;-70
2022/11/18 02:57:07;;;;;;;14.23;12.55;;;;;;;10.95;93.67;98355.81;10528394;27;20040;-71
2022/11/18 03:02:15;;;;;;;13.90;11.00;;;;;;;10.98;93.56;98357.31;10522408;27;20048;-69
2022/11/18 03:07:34;;;;;;;11.95;10.45;;;;;;;11.04;93.25;98362.75;10514970;27;20043;-68
2022/11/18 03:12:50;;;;;;;12.48;10.90;;;;;;;11.07;93.11;98359.75;10510256;28;20048;-68
2022/11/18 03:18:15;;;;;;;13.68;11.63;;;;;;;10.94;93.32;98367.44;10524855;28;20040;-71
2022/11/18 03:23:25;;;;;;;12.20;10.90;;;;;;;10.98;94.27;98373.28;10559523;27;20047;-71
2022/11/18 03:28:40;;;;;;;12.25;10.85;;;;;;;10.98;93.97;98381.25;10525075;28;20040;-72
2022/11/18 03:33:46;;;;;;;13.43;10.82;;;;;;;10.95;94.41;98377.91;10522316;28;20562;-69
2022/11/18 03:38:51;;;;;;;12.25;10.63;;;;;;;11.02;94.31;98387.88;10522087;28;20091;-71
2022/11/18 03:44:06;;;;;;;14.70;11.50;;;;;;;11.01;93.74;98396.88;10509086;28;20051;-71
2022/11/18 03:49:12;;;;;;;13.38;11.73;;;;;;;10.90;94.72;98398.06;10523270;28;20047;-69
2022/11/18 03:54:37;;;;;;;15.55;13.38;;;;;;;10.78;95.38;98403.78;10524734;28;20047;-69
2022/11/18 03:59:51;;;;;;;15.90;12.27;;;;;;;10.68;96.04;98412.94;10519012;28;20054;-70
2022/11/18 04:04:55;;;;;;;17.13;12.75;;;;;;;10.65;96.65;98413.28;10522889;28;20388;-70
2022/11/18 04:10:03;;;;;;;15.13;11.80;;;;;;;10.70;96.33;98410.94;10523935;27;20055;-69
2022/11/18 04:15:05;;;;;;;9.95;8.85;;;;;;;10.68;95.77;98418.25;10522400;27;20050;-69
2022/11/18 04:20:12;;;;;;;10.85;8.65;;;;;;;10.69;96.07;98414.59;10526470;28;20082;-70
2022/11/18 04:25:14;;;;;;;8.05;7.20;;;;;;;10.75;95.38;98422.75;10523694;28;20063;-69
2022/11/18 04:30:15;;;;;;;8.05;7.25;;;;;;;10.81;95.20;98423.91;10524112;27;20044;-69
2022/11/18 04:35:17;;;;;;;9.32;6.82;;;;;;;10.81;95.12;98423.91;10526174;27;20051;-68
2022/11/18 04:40:18;;;;;;;8.60;7.70;;;;;;;10.90;95.13;98422.88;10523843;28;20067;-69
2022/11/18 04:45:20;;;;;;;7.90;7.10;;;;;;;10.86;94.78;98431.38;10528039;28;20059;-71
2022/11/18 04:50:21;;;;;;;7.70;6.90;;;;;;;10.77;94.56;98443.84;10518987;28;20046;-71
2022/11/18 04:55:22;;;;;;;8.00;7.20;;;;;;;10.84;95.10;98433.34;10523073;27;20048;-71
2022/11/18 05:00:24;;;;;;;6.78;6.18;;;;;;;10.88;94.79;98448.81;10524446;28;20051;-68
2022/11/18 05:05:25;;;;;;;8.48;7.43;;;;;;;10.99;94.75;98444.13;10524883;28;20044;-71
2022/11/18 05:10:26;;;;;;;6.90;6.15;;;;;;;11.02;94.65;98438.47;10524042;28;20064;-71
2022/11/18 05:15:28;;;;;;;7.68;6.93;;;;;;;11.07;94.30;98452.13;10515451;27;20051;-69
2022/11/18 05:20:29;;;;;;;7.63;6.53;;;;;;;11.07;93.70;98454.78;10522394;28;20051;-73
2022/11/18 05:25:30;;;;;;;6.88;6.22;;;;;;;11.08;93.66;98457.28;10511203;28;20515;-69
2022/11/18 05:30:32;;;;;;;7.10;6.28;;;;;;;11.11;94.23;98466.75;10505171;28;20056;-70
2022/11/18 05:35:35;;;;;;;6.78;6.05;;;;;;;11.13;94.31;98475.41;10476948;28;20131;-69
2022/11/18 05:40:37;;;;;;;6.87;6.27;;;;;;;11.08;92.52;98477.72;10480809;28;20054;-68
2022/11/18 05:45:39;;;;;;;6.07;5.47;;;;;;;11.06;92.44;98477.06;10482843;28;20414;-68
2022/11/18 05:50:41;;;;;;;6.35;5.60;;;;;;;11.08;91.94;98483.91;10470448;28;20143;-72
2022/11/18 05:55:47;;;;;;;7.28;5.50;;;;;;;11.09;92.44;98490.91;10490386;28;20047;-71
2022/11/18 06:00:53;;;;;;;7.22;5.35;;;;;;;11.03;92.38;98493.38;10504931;28;20048;-72
2022/11/18 06:05:57;;;;;;;5.57;4.88;;;;;;;11.07;92.44;98505.38;10501041;28;20047;-68
2022/11/18 06:10:58;;;;;;;6.13;4.90;;;;;;;11.00;92.06;98513.19;10501482;28;20408;-71
2022/11/18 06:16:00;;;;;;;6.25;5.65;;;;;;;10.77;92.58;98515.72;10486705;28;20058;-70
2022/11/18 06:21:04;;;;;;;8.15;7.00;;;;;;;10.73;93.16;98538.34;10501354;28;20048;-70
2022/11/18 06:26:08;;;;;;;7.53;6.68;;;;;;;10.76;93.33;98532.69;10511014;28;20778;-72
2022/11/18 06:31:09;;;;;;;8.17;6.77;;;;;;;10.87;94.25;98542.16;10511932;28;20048;-71
2022/11/18 06:36:10;;;;;;;7.10;6.40;;;;;;;10.95;94.32;98560.78;10513769;28;20204;-71
2022/11/18 06:41:12;;;;;;;8.23;6.13;;;;;;;11.06;92.96;98571.09;10528457;28;20058;-72
2022/11/18 06:51:36;;;;;;;8.30;7.40;;;;;;;11.10;92.50;98587.56;10538353;28;20054;-71
2022/11/18 06:56:37;;;;;;;7.25;6.55;;;;;;;11.07;92.15;98587.91;10499588;28;20514;-72
2022/11/18 07:01:40;;;;;;;7.15;6.10;;;;;;;11.16;91.83;98599.41;10493889;28;20043;-73
2022/11/18 07:06:42;;;;;;;8.20;6.72;;;;;;;11.16;91.62;98602.06;10547585;28;20051;-72
2022/11/18 07:11:43;;;;;;;7.43;6.53;;;;;;;11.13;91.51;98616.53;10538525;28;20047;-71
2022/11/18 07:16:44;;;;;;;9.13;6.72;;;;;;;11.19;90.95;98618.53;10515756;28;20051;-70
2022/11/18 07:21:46;;;;;;;7.78;6.78;;;;;;;11.01;90.10;98615.22;10503694;28;20051;-72
2022/11/18 07:26:47;;;;;;;9.07;7.18;;;;;;;10.95;92.25;98627.34;10551070;28;20099;-71
2022/11/18 07:31:49;;;;;;;9.30;8.05;;;;;;;11.01;92.34;98632.00;10554619;28;20070;-72
2022/11/18 07:36:50;;;;;;;9.65;8.73;;;;;;;11.00;92.63;98643.63;10528410;28;20052;-71
2022/11/18 07:41:51;;;;;;;10.05;8.98;;;;;;;11.04;92.97;98646.81;10523541;28;20070;-71
2022/11/18 07:46:52;;;;;;;12.68;9.40;;;;;;;11.03;91.91;98655.81;10519485;28;20052;-71
2022/11/18 07:51:54;;;;;;;11.82;10.63;;;;;;;10.97;93.18;98667.94;10487111;28;20527;-72
2022/11/18 07:56:55;;;;;;;11.20;9.85;;;;;;;11.00;93.33;98662.28;10505209;28;20051;-70
2022/11/18 08:01:56;;;;;;;12.85;10.05;;;;;;;11.00;93.19;98672.09;10510109;28;20458;-67
2022/11/18 08:06:58;;;;;;;12.90;9.57;;;;;;;11.05;93.92;98675.09;10491659;28;20055;-69
2022/11/18 08:11:59;;;;;;;11.93;9.70;;;;;;;11.11;93.98;98679.78;10507120;28;20109;-71
2022/11/18 08:17:00;;;;;;;10.18;9.07;;;;;;;11.20;93.25;98689.44;10498383;28;20051;-71
2022/11/18 08:22:02;;;;;;;11.02;9.80;;;;;;;11.26;93.34;98693.25;10504080;28;20047;-69
2022/11/18 08:27:03;;;;;;;10.23;9.23;;;;;;;11.32;91.72;98703.28;10506646;28;20141;-70
2022/11/18 08:32:05;;;;;;;10.43;9.23;;;;;;;11.18;92.26;98707.41;10500574;28;20047;-71
2022/11/18 08:37:06;;;;;;;11.30;10.02;;;;;;;11.09;92.33;98709.25;10500184;28;20039;-70
2022/11/18 08:42:08;;;;;;;12.18;10.25;;;;;;;11.24;93.84;98708.56;10502889;28;20150;-68
2022/11/18 08:47:10;;;;;;;9.70;8.70;;;;;;;11.25;92.24;98708.41;10507065;28;20541;-71
2022/11/18 08:52:11;;;;;;;11.57;9.55;;;;;;;11.36;92.61;98712.56;10507665;28;20082;-70
2022/11/18 08:57:13;;;;;;;11.35;9.80;;;;;;;11.31;92.22;98725.56;10505615;28;20561;-71
2022/11/18 09:02:16;;;;;;;10.43;9.32;;;;;;;11.24;92.53;98728.03;10505570;28;20767;-70
2022/11/18 09:07:19;;;;;;;13.40;9.32;;;;;;;11.31;92.26;98729.06;10507317;28;20262;-68
2022/11/18 09:12:20;;;;;;;9.00;8.15;;;;;;;11.28;91.21;98729.38;10489994;28;20139;-69
2022/11/18 09:17:22;;;;;;;8.15;6.50;;;;;;;11.25;91.93;98735.03;10503929;28;20048;-70
2022/11/18 09:22:23;;;;;;;7.90;6.97;;;;;;;11.13;93.03;98745.19;10501596;28;20070;-70
2022/11/18 09:27:25;;;;;;;9.32;6.28;;;;;;;10.96;92.68;98752.31;10509222;28;20052;-69
2022/11/18 09:32:26;;;;;;;6.90;6.18;;;;;;;10.93;93.56;98757.13;10490963;28;20747;-70
2022/11/18 09:37:27;;;;;;;8.82;6.72;;;;;;;10.82;93.54;98755.59;10505799;28;20043;-69
2022/11/18 09:43:09;;;;;;;8.32;6.82;;;;;;;10.84;94.09;98772.25;10506051;28;20473;-69
2022/11/18 09:48:18;;;;;;;7.45;6.05;;;;;;;10.84;94.58;98772.25;10505398;28;20051;-68
2022/11/18 09:53:23;;;;;;;6.68;4.95;;;;;;;10.81;92.88;98763.72;10503478;28;25190;-70
2022/11/18 09:58:28;;;;;;;5.60;4.55;;;;;;;10.78;93.38;98770.22;10502242;28;20058;-69
2022/11/18 10:03:31;;;;;;;5.20;4.13;;;;;;;10.67;93.89;98774.00;10501266;28;20056;-71
2022/11/18 10:08:57;;;;;;;6.70;3.63;;;;;;;10.74;92.85;98779.53;10501707;28;20051;-70
2022/11/18 10:14:20;;;;;;;5.05;3.83;;;;;;;11.22;90.73;98785.16;10489079;28;20523;-68
2022/11/18 10:19:29;;;;;;;6.45;3.45;;;;;;;11.13;90.71;98786.97;10509562;28;20746;-68
2022/11/18 10:24:37;;;;;;;3.60;3.15;;;;;;;10.96;90.10;98789.59;10508191;28;20051;-71
2022/11/18 10:29:38;;;;;;;5.43;3.63;;;;;;;10.94;90.67;98791.59;10513403;28;20801;-71
2022/11/18 10:34:51;;;;;;;3.72;2.95;;;;;;;11.12;91.99;98794.13;10498318;28;20047;-69
2022/11/18 10:39:55;;;;;;;3.40;3.10;;;;;;;11.24;88.60;98797.28;10509613;28;20446;-71
2022/11/18 10:45:24;;;;;;;3.80;2.83;;;;;;;11.15;89.67;98808.94;10510611;28;20051;-71
2022/11/18 10:50:30;;;;;;;4.63;3.40;;;;;;;11.18;89.09;98803.28;10539430;28;20131;-70
2022/11/18 10:55:32;;;;;;;4.25;3.63;;;;;;;11.25;89.30;98814.94;10508775;28;20132;-70
2022/11/18 11:00:41;;;;;;;3.35;2.70;;;;;;;11.36;89.15;98815.66;10511707;28;20060;-72
2022/11/18 11:05:42;;;;;;;3.35;2.70;;;;;;;11.23;88.73;98816.09;10509619;28;20044;-70
2022/11/18 11:10:55;;;;;;;3.33;2.50;;;;;;;11.27;89.39;98825.44;10506677;28;20060;-70
2022/11/18 11:16:02;;;;;;;3.33;2.63;;;;;;;11.39;89.42;98815.31;10494383;28;20639;-70
2022/11/18 11:21:10;;;;;;;4.55;3.00;;;;;;;11.46;87.55;98817.16;10500281;28;20094;-71
2022/11/18 11:26:21;;;;;;;2.55;2.35;;;;;;;11.24;88.93;98823.09;10483527;28;20103;-71
2022/11/18 11:32:18;;;;;;;2.92;2.53;;;;;;;11.30;89.56;98820.63;10502104;27;20626;-70
2022/11/18 11:37:46;;;;;;;3.10;2.90;;;;;;;11.30;88.50;98825.97;10506400;28;20048;-71
2022/11/18 11:43:26;;;;;;;4.82;2.67;;;;;;;11.27;88.53;98833.44;10503449;28;20051;-70
2022/11/18 11:48:56;;;;;;;3.20;2.67;;;;;;;11.29;89.21;98837.63;10506730;28;20048;-71
2022/11/18 11:54:23;;;;;;;5.13;3.40;;;;;;;11.59;90.03;98838.00;10490208;28;20511;-69
2022/11/18 11:59:32;;;;;;;3.78;2.70;;;;;;;11.67;87.42;98840.66;10508165;28;20070;-70
2022/11/18 12:04:48;;;;;;;7.90;3.35;;;;;;;11.75;86.75;98844.34;10505405;28;20052;-69
2022/11/18 12:10:19;;;;;;;5.72;3.05;;;;;;;11.81;86.83;98849.00;10506270;28;20554;-69
2022/11/18 12:15:38;;;;;;;5.43;3.05;;;;;;;12.04;86.38;98841.22;10507125;28;20047;-72
2022/11/18 12:20:43;;;;;;;7.50;3.10;;;;;;;12.55;83.67;98844.47;10508343;28;20058;-71
2022/11/18 12:25:45;;;;;;;4.10;3.33;;;;;;;16.31;71.80;98840.31;10509580;28;20048;-71
2022/11/18 12:30:46;;;;;;;2.83;1.98;;;;;;;18.42;59.28;98836.88;10483072;28;20098;-68
2022/11/18 12:35:49;;;;;;;4.45;2.42;;;;;;;17.06;61.97;98848.63;10501729;28;20062;-72
2022/11/18 12:40:51;;;;;;;2.58;1.55;;;;;;;16.47;63.59;98845.38;10500542;28;20695;-70
2022/11/18 12:45:55;;;;;;;3.85;2.10;;;;;;;16.13;64.30;98846.97;10494314;28;20060;-68
2022/11/18 12:50:59;;;;;;;3.75;1.80;;;;;;;17.08;60.08;98849.25;10500904;28;20093;-71
2022/11/18 12:56:21;;;;;;;1.75;1.40;;;;;;;18.83;55.67;98843.03;10501827;28;20119;-70
2022/11/18 13:01:29;;;;;;;2.80;1.50;;;;;;;15.74;61.41;98840.19;10496331;28;20071;-69
2022/11/18 13:06:33;;;;;;;2.10;1.33;;;;;;;14.17;69.01;98851.94;10482186;28;20064;-70
2022/11/18 13:11:45;;;;;;;2.42;1.75;;;;;;;13.53;72.11;98852.28;10501863;28;20047;-68
2022/11/18 13:27:50;;;;;;;2.95;1.23;;;;;;;13.29;72.04;98856.72;10500026;28;20051;-70
2022/11/18 13:32:53;;;;;;;;;;;;;;;12.97;72.51;98869.22;10487115;28;20043;-71
2022/11/18 13:37:57;;;;;;;4.55;1.20;;;;;;;12.78;75.46;98862.44;10512714;28;19931;-69
2022/11/18 13:42:58;;;;;;;;;;;;;;;12.52;76.20;98871.50;10517950;28;20048;-69
2022/11/18 13:48:07;;;;;;;3.60;1.02;;;;;;;12.50;75.83;98867.34;10520861;28;20087;-70
2022/11/18 13:53:29;;;;;;;1.58;1.08;;;;;;;12.48;75.81;98869.34;10531944;28;21131;-71
2022/11/18 13:58:48;;;;;;;3.88;1.75;;;;;;;12.66;76.01;98869.97;10506109;28;20051;-70
2022/11/18 14:04:21;;;;;;;1.08;0.70;;;;;;;12.80;73.86;98875.59;10504685;27;20146;-70
2022/11/18 14:09:28;;;;;;;3.33;1.25;;;;;;;12.92;73.18;98879.56;10509178;28;20960;-69
2022/11/18 14:14:35;;;;;;;2.47;1.52;;;;;;;12.83;74.33;98888.63;10511454;28;20051;-70
2022/11/18 14:19:38;;;;;;;2.53;1.33;;;;;;;12.71;73.92;98880.94;10510982;28;20043;-70
2022/11/18 14:24:41;;;;;;;2.78;1.83;;;;;;;12.52;75.53;98886.66;10513068;28;20709;-73
2022/11/18 14:29:49;;;;;;;4.20;3.45;;;;;;;12.47;76.83;98897.03;10511785;28;20063;-72
2022/11/18 14:34:59;;;;;;;6.97;5.07;;;;;;;12.54;76.69;98895.34;10536280;28;20514;-70
2022/11/18 14:40:01;;;;;;;3.40;1.40;;;;;;;12.61;76.02;98906.19;10517774;28;20054;-70
2022/11/18 14:45:02;;;;;;;3.08;1.23;;;;;;;12.46;76.79;98900.69;10518217;27;20051;-70
2022/11/18 14:50:11;;;;;;;20.13;16.15;;;;;;;12.42;75.71;98902.06;10540267;28;20071;-71
2022/11/18 14:55:12;;;;;;;15.48;12.48;;;;;;;12.20;77.59;98909.72;10530354;28;20063;-71
2022/11/18 15:00:15;;;;;;;12.60;10.32;;;;;;;12.03;78.45;98904.38;10519703;28;20447;-72
2022/11/18 15:05:16;;;;;;;7.65;5.20;;;;;;;11.92;79.06;98918.03;10542055;28;20053;-69
2022/11/18 15:10:17;;;;;;;9.10;5.00;;;;;;;11.82;80.02;98917.34;10520868;28;20054;-70
2022/11/18 15:15:19;;;;;;;8.05;3.97;;;;;;;11.82;80.24;98918.16;10537648;28;20051;-72
2022/11/18 15:20:21;;;;;;;6.10;2.80;;;;;;;11.83;80.56;98913.69;10554715;28;20055;-75
2022/11/18 15:25:23;;;;;;;6.10;2.70;;;;;;;11.66;79.82;98918.97;10545890;28;20048;-69
2022/11/18 15:30:24;;;;;;;5.40;4.22;;;;;;;11.60;80.70;98930.25;10531423;27;20062;-70
2022/11/18 15:35:25;;;;;;;3.20;2.88;;;;;;;11.45;80.59;98942.56;10556427;28;20047;-71
2022/11/18 15:40:27;;;;;;;5.05;1.80;;;;;;;11.37;81.18;98946.03;10538287;28;20056;-70
2022/11/18 15:45:28;;;;;;;4.85;3.17;;;;;;;11.26;81.20;98944.47;10499856;28;20058;-69
2022/11/18 15:50:29;;;;;;;3.08;1.88;;;;;;;11.16;81.95;98933.13;10492603;28;20047;-71
2022/11/18 15:55:31;;;;;;;4.78;3.17;;;;;;;11.17;82.92;98956.09;10507401;28;20047;-70
2022/11/18 16:00:32;;;;;;;10.45;4.57;;;;;;;11.14;82.49;98957.25;10488756;28;20047;-69
2022/11/18 16:05:33;;;;;;;4.90;3.78;;;;;;;11.17;81.77;98965.91;10504693;28;20067;-70
2022/11/18 16:15:55;;;;;;;4.38;2.38;;;;;;;11.10;80.86;98977.19;10504916;28;20626;-70
2022/11/18 16:20:58;;;;;;;7.07;4.50;;;;;;;11.06;80.77;98978.50;10502957;28;20062;-69
2022/11/18 16:26:00;;;;;;;8.93;5.57;;;;;;;10.92;79.68;98984.41;10502650;28;20054;-70
2022/11/18 16:36:26;;;;;;;5.43;4.03;;;;;;;10.90;80.22;98976.59;10505263;28;20054;-68
2022/11/18 16:41:33;;;;;;;5.85;3.28;;;;;;;10.86;79.53;98985.88;10510563;28;20089;-68
2022/11/18 16:46:36;;;;;;;5.70;3.88;;;;;;;10.85;79.61;98999.34;10503247;28;20613;-69
2022/11/18 16:51:41;;;;;;;5.20;3.63;;;;;;;10.86;79.52;99001.84;10505906;28;20060;-70
2022/11/18 16:56:43;;;;;;;6.80;3.60;;;;;;;10.83;78.45;99004.81;10485868;27;20536;-67
2022/11/18 17:01:44;;;;;;;10.98;5.03;;;;;;;10.83;79.77;99015.47;10506965;28;20056;-68
2022/11/18 17:06:46;;;;;;;8.48;5.55;;;;;;;10.88;79.52;99025.66;10484683;28;20044;-69
2022/11/18 17:11:49;;;;;;;4.80;3.03;;;;;;;10.93;78.03;99024.19;10501312;28;20506;-67
2022/11/18 17:16:51;;;;;;;5.53;3.65;;;;;;;10.94;78.28;99035.66;10502859;28;20047;-69
2022/11/18 17:21:53;;;;;;;8.18;5.43;;;;;;;10.92;78.90;99027.84;10515944;28;20715;-70
2022/11/18 17:26:55;;;;;;;7.57;3.70;;;;;;;10.94;78.15;99036.53;10529062;28;20047;-70
2022/11/18 17:31:56;;;;;;;5.63;3.70;;;;;;;11.01;77.82;99035.91;10529982;28;20048;-70
2022/11/18 17:36:58;;;;;;;5.95;3.47;;;;;;;10.92;77.64;99033.16;10509179;28;21562;-71
2022/11/18 17:42:17;;;;;;;6.05;2.88;;;;;;;10.93;77.51;99024.19;10513425;28;20055;-69
2022/11/18 17:47:19;;;;;;;6.45;2.88;;;;;;;10.87;76.07;99039.94;10499103;28;20568;-68
2022/11/18 17:52:20;;;;;;;4.13;2.70;;;;;;;10.85;76.52;99036.59;10515586;28;20414;-70
2022/11/18 17:57:21;;;;;;;7.22;3.88;;;;;;;10.81;76.99;99046.75;10478861;28;20050;-71
2022/11/18 18:02:23;;;;;;;8.82;5.03;;;;;;;10.72;77.61;99044.97;10478816;28;20060;-68
2022/11/18 18:07:24;;;;;;;7.85;5.20;;;;;;;10.67;77.76;99041.94;10495489;28;20196;-69
2022/11/18 18:17:47;;;;;;;11.35;6.32;;;;;;;10.54;79.18;99051.16;10540041;28;20053;-67
2022/11/18 18:22:48;;;;;;;15.77;8.15;;;;;;;10.58;80.02;99052.53;10492822;28;20051;-70
2022/11/18 18:27:49;;;;;;;11.02;7.15;;;;;;;10.59;80.67;99061.34;10485993;28;20096;-67
2022/11/18 18:32:51;;;;;;;10.88;7.72;;;;;;;10.57;80.43;99063.34;10501295;28;20047;-67
2022/11/18 18:37:53;;;;;;;11.23;7.15;;;;;;;10.57;80.33;99061.50;10503891;28;20629;-68
2022/11/18 18:42:54;;;;;;;10.82;7.75;;;;;;;10.56;80.67;99065.16;10507645;28;20067;-69
2022/11/18 18:48:01;;;;;;;8.80;7.18;;;;;;;10.52;80.83;99071.75;10485857;28;22159;-68
2022/11/18 18:53:03;;;;;;;9.88;7.57;;;;;;;10.55;80.94;99078.59;10488649;28;20044;-71
2022/11/18 18:58:04;;;;;;;11.02;7.07;;;;;;;10.47;79.91;99073.22;10506200;28;20047;-66
2022/11/18 19:03:05;;;;;;;7.28;5.20;;;;;;;10.49;80.34;99080.03;10486193;28;20055;-68
2022/11/18 19:08:07;;;;;;;12.65;7.60;;;;;;;10.41;80.52;99078.13;10506370;27;20063;-70
2022/11/18 19:13:08;;;;;;;7.70;5.60;;;;;;;10.30;80.40;99085.47;10487082;28;20066;-68
2022/11/18 19:18:10;;;;;;;4.90;3.22;;;;;;;10.19;79.96;99081.22;10505512;28;20509;-68
2022/11/18 19:23:12;;;;;;;6.40;3.80;;;;;;;10.23;79.97;99091.38;10507798;27;20047;-70
2022/11/18 19:28:13;;;;;;;7.32;3.67;;;;;;;10.20;80.03;99096.19;10508697;28;20052;-70
2022/11/18 19:33:14;;;;;;;8.23;5.55;;;;;;;10.24;80.70;99095.72;10507772;28;20059;-68
2022/11/18 19:38:16;;;;;;;6.68;4.03;;;;;;;10.37;80.95;99102.53;10490645;28;20476;-69
2022/11/18 19:43:17;;;;;;;6.78;4.13;;;;;;;10.34;80.75;99102.84;10510025;27;20039;-70
2022/11/18 19:48:19;;;;;;;8.10;4.13;;;;;;;10.20;80.59;99123.59;10510247;28;20057;-67
2022/11/18 19:53:33;;;;;;;9.52;4.97;;;;;;;10.07;80.86;99128.44;10508741;28;20052;-69
2022/11/18 19:58:36;;;;;;;8.55;5.53;;;;;;;9.99;81.10;99128.34;10532358;28;20141;-73
2022/11/18 20:03:38;;;;;;;9.80;5.07;;;;;;;10.03;81.51;99132.41;10518277;28;20386;-69
2022/11/18 20:08:39;;;;;;;8.23;4.85;;;;;;;10.03;81.75;99127.06;10512061;27;20046;-73
2022/11/18 20:13:42;;;;;;;8.27;6.22;;;;;;;10.05;81.76;99141.06;10542793;28;20047;-69
2022/11/18 20:18:48;;;;;;;6.97;5.38;;;;;;;10.08;82.22;99154.03;10503557;28;20658;-72
2022/11/18 20:23:53;;;;;;;7.40;4.93;;;;;;;10.04;81.99;99144.69;10535183;28;20534;-67
2022/11/18 20:28:54;;;;;;;4.60;3.95;;;;;;;10.07;81.94;99147.91;10503483;28;20066;-68
2022/11/18 20:33:58;;;;;;;5.82;4.72;;;;;;;9.89;82.05;99139.00;10488326;28;20633;-69
2022/11/18 20:39:05;;;;;;;7.57;4.97;;;;;;;9.93;83.58;99139.56;10487754;28;20048;-68
2022/11/18 20:44:07;;;;;;;8.90;5.63;;;;;;;9.85;82.75;99140.31;10504940;28;20556;-66
2022/11/18 20:49:08;;;;;;;7.20;5.75;;;;;;;9.85;83.94;99135.81;10503795;28;20047;-69
2022/11/18 20:54:09;;;;;;;6.13;5.07;;;;;;;9.90;83.49;99138.03;10502631;28;20050;-71
2022/11/18 20:59:11;;;;;;;7.72;6.15;;;;;;;9.83;84.13;99142.25;10504601;27;20048;-69
2022/11/18 21:04:12;;;;;;;9.25;6.35;;;;;;;9.79;83.98;99141.72;10502629;28;20048;-70
2022/11/18 21:09:15;;;;;;;8.63;5.65;;;;;;;9.76;85.38;99152.66;10521315;28;20047;-71
2022/11/18 21:14:18;;;;;;;8.60;5.07;;;;;;;9.91;85.34;99153.00;10506460;27;20079;-71
2022/11/18 21:19:25;;;;;;;9.25;6.30;;;;;;;9.91;85.76;99156.50;10522717;28;20059;-70
2022/11/18 21:24:28;;;;;;;6.72;5.32;;;;;;;9.96;85.72;99155.22;10504046;28;20058;-70
2022/11/18 21:29:30;;;;;;;7.88;5.50;;;;;;;10.01;85.09;99155.63;10520709;28;20056;-70
2022/11/18 21:34:32;;;;;;;7.40;4.60;;;;;;;10.10;84.19;99154.72;10521152;28;20351;-72
2022/11/18 21:39:33;;;;;;;8.82;5.28;;;;;;;10.12;84.20;99168.72;10525797;28;20054;-72
2022/11/18 21:44:34;;;;;;;7.55;5.32;;;;;;;10.11;83.71;99177.69;10523595;28;20052;-71
2022/11/18 21:49:36;;;;;;;8.15;5.82;;;;;;;10.11;83.81;99175.03;10523806;28;20051;-71
2022/11/18 21:54:37;;;;;;;6.20;5.13;;;;;;;10.12;85.27;99184.69;10551669;28;20074;-72
2022/11/18 21:59:38;;;;;;;6.82;5.32;;;;;;;10.11;85.16;99188.31;10563234;28;20055;-72
2022/11/18 22:04:52;;;;;;;9.25;5.90;;;;;;;10.06;85.52;99193.25;10555439;28;20044;-71
2022/11/18 22:09:54;;;;;;;5.70;5.15;;;;;;;10.05;85.63;99205.69;10526329;28;20070;-71
2022/11/18 22:14:55;;;;;;;6.65;5.88;;;;;;;10.04;85.62;99208.50;10506549;28;20051;-71
2022/11/18 22:19:56;;;;;;;7.97;5.97;;;;;;;9.93;85.31;99201.53;10531312;28;20050;-69
2022/11/18 22:24:58;;;;;;;9.80;6.68;;;;;;;9.91;85.55;99209.66;10535056;27;20485;-71
2022/11/18 22:30:00;;;;;;;10.80;9.63;;;;;;;9.91;85.52;99214.97;10513185;27;20051;-70
2022/11/18 22:35:03;;;;;;;9.98;8.90;;;;;;;9.86;85.86;99219.91;10519724;28;20157;-71
2022/11/18 22:40:05;;;;;;;10.25;8.18;;;;;;;9.90;85.54;99218.59;10530424;28;20091;-72
2022/11/18 22:45:07;;;;;;;9.45;8.55;;;;;;;9.92;85.07;99221.13;10533848;27;20050;-73
2022/11/18 22:50:09;;;;;;;6.57;5.95;;;;;;;9.82;84.23;99236.28;10525796;28;20047;-71
2022/11/18 22:55:10;;;;;;;7.97;5.63;;;;;;;9.78;82.09;99238.38;10533083;28;20055;-72
2022/11/18 23:00:12;;;;;;;7.70;4.40;;;;;;;9.65;81.59;99240.50;10537064;28;20051;-70
2022/11/18 23:05:14;;;;;;;4.28;3.88;;;;;;;9.53;81.60;99247.78;10539200;28;20063;-73
2022/11/18 23:10:15;;;;;;;3.67;2.97;;;;;;;9.41;81.06;99251.56;10533267;28;20058;-71
2022/11/18 23:15:16;;;;;;;4.03;3.50;;;;;;;9.28;81.32;99258.00;10549577;28;20048;-72
2022/11/18 23:20:18;;;;;;;4.20;3.88;;;;;;;9.10;82.13;99263.16;10558251;28;20066;-73
2022/11/18 23:25:19;;;;;;;2.95;2.72;;;;;;;9.07;81.52;99268.75;10561201;28;20043;-70
2022/11/18 23:30:21;;;;;;;3.13;2.83;;;;;;;8.97;82.18;99279.34;10546924;28;20139;-71
2022/11/18 23:35:23;;;;;;;4.43;4.03;;;;;;;8.93;81.35;99274.44;10564337;28;20046;-71
2022/11/18 23:40:24;;;;;;;3.45;3.15;;;;;;;8.81;79.74;99277.22;10579281;27;20602;-73
2022/11/18 23:45:25;;;;;;;3.72;3.42;;;;;;;8.67;79.89;99274.94;10564537;28;20075;-71
2022/11/18 23:50:27;;;;;;;5.90;3.00;;;;;;;8.65;79.38;99290.16;10536025;28;20056;-71
2022/11/18 23:55:28;;;;;;;3.47;3.15;;;;;;;8.59;79.05;99296.84;10518924;27;20776;-70
